Time;durP1;ratioP1;P1;durP2;ratioP2;P2;SDS_P1;SDS_P2;PMS_P1;PMS_P2;Temp;Humidity;BMP_temperature;BMP_pressure;BME280_temperature;BME280_humidity;BME280_pressure;Samples;Min_cycle;Max_cycle;Signal;HPM_P1;HPM_P2
2024/04/13 00:00:17;;;;;;;8.15;4.03;;;;;;;16.75;100.00;102586.19;5509607;25;20501;-68
2024/04/13 00:03:05;;;;;;;8.38;4.30;;;;;;;16.76;100.00;102592.50;5560578;25;20064;-69
2024/04/13 00:05:54;;;;;;;9.05;4.25;;;;;;;16.73;100.00;102590.28;5556391;25;20000;-68
2024/04/13 00:08:42;;;;;;;11.27;4.68;;;;;;;16.72;100.00;102585.91;5551611;25;20007;-69
2024/04/13 00:11:30;;;;;;;10.50;4.45;;;;;;;16.70;100.00;102591.66;5599036;25;20043;-68
2024/04/13 00:14:18;;;;;;;10.10;4.30;;;;;;;16.68;100.00;102591.09;5535449;25;20485;-69
2024/04/13 00:17:07;;;;;;;8.65;3.97;;;;;;;16.68;100.00;102595.78;5521033;25;20441;-69
2024/04/13 00:19:55;;;;;;;7.65;4.40;;;;;;;16.67;100.00;102589.44;5535488;25;20004;-68
2024/04/13 00:22:44;;;;;;;9.85;4.50;;;;;;;16.66;100.00;102587.75;5571268;25;20156;-69
2024/04/13 00:25:32;;;;;;;9.98;4.30;;;;;;;16.66;100.00;102589.69;5546570;25;20000;-70
2024/04/13 00:28:21;;;;;;;14.43;4.78;;;;;;;16.63;100.00;102581.97;5533836;25;20476;-69
2024/04/13 00:31:11;;;;;;;9.15;4.60;;;;;;;16.63;100.00;102580.06;5560146;25;20009;-69
2024/04/13 00:34:00;;;;;;;9.07;4.43;;;;;;;16.60;100.00;102575.91;5561843;25;19997;-69
2024/04/13 00:36:48;;;;;;;9.38;4.47;;;;;;;16.58;100.00;102569.84;5532353;25;20015;-70
2024/04/13 00:39:37;;;;;;;8.38;4.15;;;;;;;16.57;100.00;102567.34;5511402;25;20004;-69
2024/04/13 00:42:26;;;;;;;9.88;4.45;;;;;;;16.56;100.00;102565.69;5561391;25;20444;-69
2024/04/13 00:45:14;;;;;;;9.23;4.70;;;;;;;16.53;100.00;102569.81;5534048;25;20005;-69
2024/04/13 00:48:02;;;;;;;9.25;4.60;;;;;;;16.53;100.00;102571.75;5533626;25;20417;-69
2024/04/13 00:51:01;;;;;;;12.68;4.70;;;;;;;16.51;100.00;102566.50;5507916;25;20072;-69
2024/04/13 00:53:49;;;;;;;10.52;4.97;;;;;;;16.50;100.00;102562.09;5580532;25;20000;-69
2024/04/13 00:56:40;;;;;;;9.23;4.78;;;;;;;16.50;100.00;102561.25;5572053;25;20036;-69
2024/04/13 00:59:29;;;;;;;10.82;5.15;;;;;;;16.49;100.00;102556.84;5540459;25;20393;-69
2024/04/13 01:02:19;;;;;;;8.98;4.90;;;;;;;16.46;100.00;102554.63;5536043;25;20005;-68
2024/04/13 01:05:07;;;;;;;7.88;4.63;;;;;;;16.45;100.00;102548.31;5510039;25;19996;-68
2024/04/13 01:07:55;;;;;;;11.50;4.70;;;;;;;16.43;100.00;102556.00;5507193;25;20401;-69
2024/04/13 01:10:45;;;;;;;9.98;5.10;;;;;;;16.42;100.00;102548.81;5529208;25;20445;-69
2024/04/13 01:13:33;;;;;;;8.98;4.95;;;;;;;16.40;100.00;102551.00;5448034;26;20037;-69
2024/04/13 01:16:28;;;;;;;9.85;5.32;;;;;;;16.38;100.00;102544.97;5496783;26;19997;-69
2024/04/13 01:19:16;;;;;;;9.80;4.95;;;;;;;16.35;100.00;102537.22;5528382;25;20032;-68
2024/04/13 01:22:05;;;;;;;9.13;5.03;;;;;;;16.34;100.00;102535.56;5510308;25;20023;-69
2024/04/13 01:24:54;;;;;;;7.57;4.88;;;;;;;16.32;100.00;102535.81;5558462;25;20036;-68
2024/04/13 01:27:42;;;;;;;11.52;5.10;;;;;;;16.30;100.00;102527.00;5591900;25;20016;-68
2024/04/13 01:30:31;;;;;;;10.18;4.78;;;;;;;16.29;100.00;102521.78;5553761;25;20049;-69
2024/04/13 01:33:19;;;;;;;11.10;5.05;;;;;;;16.27;100.00;102519.28;5533048;25;19997;-69
2024/04/13 01:36:08;;;;;;;10.57;4.95;;;;;;;16.27;100.00;102512.97;5511693;25;20389;-69
2024/04/13 01:38:56;;;;;;;8.75;4.68;;;;;;;16.23;100.00;102529.16;5596853;25;20011;-69
2024/04/13 01:41:51;;;;;;;8.93;4.68;;;;;;;16.22;100.00;102530.25;5564987;25;20001;-69
2024/04/13 01:44:39;;;;;;;12.87;4.63;;;;;;;16.21;100.00;102519.50;5534459;25;20004;-69
2024/04/13 01:47:27;;;;;;;9.95;5.05;;;;;;;16.19;100.00;102517.88;5538151;25;20198;-67
2024/04/13 01:50:15;;;;;;;10.85;4.90;;;;;;;16.18;100.00;102527.19;5577845;25;20045;-66
2024/04/13 01:53:04;;;;;;;8.60;4.30;;;;;;;16.17;100.00;102520.06;5579537;25;20004;-67
2024/04/13 01:55:52;;;;;;;10.77;4.82;;;;;;;16.17;100.00;102525.53;5602177;25;20130;-67
2024/04/13 01:58:41;;;;;;;9.18;4.88;;;;;;;16.14;100.00;102523.34;5588638;25;19992;-65
2024/04/13 02:01:31;;;;;;;10.75;4.88;;;;;;;16.13;100.00;102518.91;5524445;25;20057;-70
2024/04/13 02:04:19;;;;;;;10.52;4.65;;;;;;;16.11;100.00;102515.59;5547072;25;20008;-69
2024/04/13 02:07:07;;;;;;;9.55;4.45;;;;;;;16.11;100.00;102507.34;5562403;25;19993;-69
2024/04/13 02:09:55;;;;;;;9.15;4.95;;;;;;;16.09;100.00;102505.94;5529542;25;20013;-69
2024/04/13 02:12:43;;;;;;;9.27;4.90;;;;;;;16.06;100.00;102507.31;5482742;25;20012;-69
2024/04/13 02:15:31;;;;;;;10.20;4.97;;;;;;;16.04;100.00;102505.91;5534287;25;20059;-68
2024/04/13 02:18:20;;;;;;;11.45;4.88;;;;;;;16.03;100.00;102505.09;5545206;25;20000;-69
2024/04/13 02:21:08;;;;;;;10.30;5.03;;;;;;;16.02;100.00;102503.44;5571527;25;20008;-69
2024/04/13 02:23:57;;;;;;;9.48;5.28;;;;;;;16.00;100.00;102518.56;5533162;25;20025;-68
2024/04/13 02:26:45;;;;;;;10.90;5.20;;;;;;;15.98;100.00;102511.38;5483218;25;20333;-69
2024/04/13 02:29:33;;;;;;;11.05;5.13;;;;;;;15.97;100.00;102509.75;5533530;25;20076;-69
2024/04/13 02:32:21;;;;;;;11.25;4.97;;;;;;;15.96;100.00;102507.25;5505612;25;20001;-69
2024/04/13 02:35:09;;;;;;;10.43;4.95;;;;;;;15.96;100.00;102507.25;5559529;25;20072;-69
2024/04/13 02:37:57;;;;;;;9.25;5.00;;;;;;;15.92;100.00;102506.94;5560337;25;20383;-69
2024/04/13 02:40:54;;;;;;;10.68;4.63;;;;;;;15.93;100.00;102497.59;5477014;25;20001;-72
2024/04/13 02:43:42;;;;;;;11.63;4.45;;;;;;;15.92;100.00;102501.44;5524363;26;20069;-70
2024/04/13 02:46:31;;;;;;;10.82;5.15;;;;;;;15.92;100.00;102500.59;5522112;26;19997;-69
2024/04/13 02:49:19;;;;;;;9.65;5.35;;;;;;;15.91;100.00;102498.97;5521406;26;20002;-69
2024/04/13 02:52:08;;;;;;;11.07;5.10;;;;;;;15.90;100.00;102500.88;5537646;25;20001;-70
2024/04/13 02:54:56;;;;;;;13.75;5.38;;;;;;;15.90;100.00;102500.06;5536856;25;19997;-70
2024/04/13 02:57:44;;;;;;;11.88;5.13;;;;;;;15.89;100.00;102506.63;5510392;25;20005;-70
2024/04/13 03:00:32;;;;;;;8.85;5.00;;;;;;;15.87;100.00;102503.31;5510295;25;19996;-70
2024/04/13 03:03:21;;;;;;;8.00;4.60;;;;;;;15.87;100.00;102506.06;5559353;25;19997;-70
2024/04/13 03:06:12;;;;;;;11.15;5.38;;;;;;;15.86;100.00;102509.91;5582383;25;20400;-69
2024/04/13 03:09:00;;;;;;;16.08;5.28;;;;;;;15.85;100.00;102511.00;5600473;25;20419;-70
2024/04/13 03:11:48;;;;;;;12.82;5.20;;;;;;;15.85;100.00;102511.00;5599777;25;20007;-70
2024/04/13 03:14:36;;;;;;;12.57;5.13;;;;;;;15.83;100.00;102507.69;5537590;25;20029;-70
2024/04/13 03:17:25;;;;;;;12.35;5.93;;;;;;;15.82;100.00;102500.53;5512034;25;20016;-70
2024/04/13 03:20:13;;;;;;;11.13;5.80;;;;;;;15.81;100.00;102498.88;5487901;25;19997;-70
2024/04/13 03:23:01;;;;;;;10.48;5.50;;;;;;;15.79;100.00;102496.38;5512260;25;20001;-70
2024/04/13 03:25:51;;;;;;;15.52;5.70;;;;;;;15.77;100.00;102493.88;5511395;25;20016;-70
2024/04/13 03:28:39;;;;;;;10.55;5.68;;;;;;;15.75;100.00;102501.59;5508862;25;20076;-70
2024/04/13 03:31:27;;;;;;;11.90;5.68;;;;;;;15.73;100.00;102503.75;5552412;25;20025;-70
2024/04/13 03:34:15;;;;;;;10.88;5.13;;;;;;;15.73;100.00;102509.25;5521993;25;20476;-69
2024/04/13 03:37:03;;;;;;;11.95;5.68;;;;;;;15.73;100.00;102509.25;5599613;25;20038;-68
2024/04/13 03:39:51;;;;;;;12.15;5.60;;;;;;;15.72;100.00;102504.84;5575996;25;20317;-68
2024/04/13 03:42:43;;;;;;;11.95;5.63;;;;;;;15.71;100.00;102505.94;5512763;25;20001;-68
2024/04/13 03:45:31;;;;;;;11.20;5.38;;;;;;;15.70;100.00;102508.94;5600206;25;20015;-69
2024/04/13 03:48:19;;;;;;;11.95;6.00;;;;;;;15.68;100.00;102503.69;5598706;25;20071;-69
2024/04/13 03:51:08;;;;;;;11.80;5.45;;;;;;;15.67;100.00;102499.28;5590999;25;20496;-69
2024/04/13 03:53:57;;;;;;;12.07;5.82;;;;;;;15.66;100.00;102503.13;5534013;25;20068;-69
2024/04/13 03:56:45;;;;;;;10.27;5.90;;;;;;;15.62;100.00;102496.47;5510542;25;19997;-71
2024/04/13 03:59:33;;;;;;;11.27;5.65;;;;;;;15.59;100.00;102499.75;5561453;25;19996;-69
2024/04/13 04:02:22;;;;;;;12.30;6.00;;;;;;;15.58;100.00;102503.59;5542218;25;20080;-70
2024/04/13 04:05:10;;;;;;;14.15;6.00;;;;;;;15.58;100.00;102500.00;5562582;25;20012;-69
2024/04/13 04:07:58;;;;;;;11.93;5.63;;;;;;;15.57;100.00;102496.44;5508007;25;20443;-70
2024/04/13 04:10:47;;;;;;;10.60;5.75;;;;;;;15.57;100.00;102492.88;5530949;25;20068;-70
2024/04/13 04:13:36;;;;;;;9.98;5.60;;;;;;;15.55;100.00;102507.69;5532761;25;20452;-70
2024/04/13 04:16:24;;;;;;;13.38;6.22;;;;;;;15.55;100.00;102495.88;5522746;26;20002;-70
2024/04/13 04:19:12;;;;;;;12.15;6.15;;;;;;;15.55;100.00;102496.69;5536071;25;20072;-69
2024/04/13 04:22:00;;;;;;;13.57;6.28;;;;;;;15.55;100.00;102501.38;5535242;25;20072;-69
2024/04/13 04:24:50;;;;;;;10.50;5.72;;;;;;;15.54;100.00;102489.56;5506039;25;20005;-68
2024/04/13 04:27:38;;;;;;;11.88;6.05;;;;;;;15.53;100.00;102492.53;5534119;25;20012;-69
2024/04/13 04:30:26;;;;;;;10.40;5.95;;;;;;;15.52;100.00;102493.66;5510781;25;20418;-69
2024/04/13 04:33:15;;;;;;;12.27;5.75;;;;;;;15.50;100.00;102487.59;5556607;25;20008;-69
2024/04/13 04:36:03;;;;;;;11.50;6.30;;;;;;;15.48;100.00;102490.56;5461723;25;20004;-69
2024/04/13 04:38:51;;;;;;;13.45;6.10;;;;;;;15.48;100.00;102498.00;5510191;25;20614;-70
2024/04/13 04:41:40;;;;;;;11.00;5.78;;;;;;;15.45;100.00;102498.53;5542826;25;19996;-69
2024/04/13 04:44:29;;;;;;;10.40;5.70;;;;;;;15.45;100.00;102498.53;5527653;25;20004;-68
2024/04/13 04:47:18;;;;;;;12.07;5.57;;;;;;;15.42;100.00;102485.31;5508355;25;20008;-69
2024/04/13 04:50:09;;;;;;;13.27;5.70;;;;;;;15.38;100.00;102487.75;5548572;25;20064;-69
2024/04/13 04:52:57;;;;;;;13.85;6.05;;;;;;;15.32;100.00;102481.38;5561643;25;20356;-69
2024/04/13 04:55:45;;;;;;;11.43;5.65;;;;;;;15.30;100.00;102485.47;5484522;25;19997;-69
2024/04/13 04:58:34;;;;;;;12.18;5.63;;;;;;;15.29;100.00;102487.38;5511306;25;20014;-69
2024/04/13 05:01:22;;;;;;;12.52;6.15;;;;;;;15.30;100.00;102479.97;5595408;25;19996;-70
2024/04/13 05:04:10;;;;;;;11.73;6.05;;;;;;;15.26;100.00;102485.16;5570662;25;20462;-70
2024/04/13 05:06:59;;;;;;;10.75;6.22;;;;;;;15.25;100.00;102480.75;5560684;25;20024;-69
2024/04/13 05:09:47;;;;;;;11.18;6.13;;;;;;;15.26;100.00;102487.88;5534362;25;19997;-69
2024/04/13 05:12:35;;;;;;;12.98;6.43;;;;;;;15.25;100.00;102486.25;5559981;25;19997;-68
2024/04/13 05:15:24;;;;;;;12.55;6.07;;;;;;;15.27;100.00;102489.56;5557815;25;20409;-68
2024/04/13 05:18:12;;;;;;;11.38;5.93;;;;;;;15.28;100.00;102479.41;5497568;26;20001;-69
2024/04/13 05:21:00;;;;;;;12.20;5.82;;;;;;;15.26;100.00;102482.41;5522554;26;19997;-71
2024/04/13 05:23:48;;;;;;;15.30;6.22;;;;;;;15.25;100.00;102477.16;5498029;25;20173;-73
2024/04/13 05:26:37;;;;;;;13.88;6.35;;;;;;;15.25;100.00;102478.00;5553527;25;20053;-71
2024/04/13 05:29:25;;;;;;;12.38;6.40;;;;;;;15.24;100.00;102473.59;5537691;25;20016;-71
2024/04/13 05:32:13;;;;;;;12.95;6.53;;;;;;;15.26;100.00;102476.91;5572605;25;20004;-71
2024/04/13 05:35:01;;;;;;;13.80;6.38;;;;;;;15.27;100.00;102473.09;5584039;25;20413;-70
2024/04/13 05:37:49;;;;;;;13.60;6.70;;;;;;;15.27;100.00;102475.84;5560330;25;19997;-72
2024/04/13 05:40:38;;;;;;;15.40;6.88;;;;;;;15.28;100.00;102469.25;5533983;25;20004;-72
2024/04/13 05:43:26;;;;;;;13.70;6.53;;;;;;;15.28;100.00;102476.66;5533202;25;20064;-71
2024/04/13 05:46:14;;;;;;;14.43;7.38;;;;;;;15.27;100.00;102478.59;5553647;25;20008;-71
2024/04/13 05:49:02;;;;;;;15.38;7.93;;;;;;;15.28;100.00;102480.22;5560843;25;20001;-72
2024/04/13 05:51:50;;;;;;;16.52;7.80;;;;;;;15.27;100.00;102474.97;5558892;25;20001;-71
2024/04/13 05:54:38;;;;;;;17.23;7.70;;;;;;;15.26;100.00;102490.63;5558051;25;20015;-70
2024/04/13 05:57:29;;;;;;;13.93;7.35;;;;;;;15.27;100.00;102474.97;5509992;25;19997;-72
2024/04/13 06:00:17;;;;;;;13.50;7.57;;;;;;;15.28;100.00;102477.47;5539077;25;20008;-72
2024/04/13 06:03:06;;;;;;;15.93;7.82;;;;;;;15.28;100.00;102480.22;5596464;25;20056;-74
2024/04/13 06:05:55;;;;;;;13.10;6.68;;;;;;;15.29;100.00;102465.41;5539294;26;20026;-72
2024/04/13 06:08:43;;;;;;;14.95;7.45;;;;;;;15.30;100.00;102461.56;5518085;26;20016;-73
2024/04/13 06:11:34;;;;;;;13.65;7.80;;;;;;;15.30;100.00;102467.06;5588821;25;19996;-72
2024/04/13 06:14:22;;;;;;;17.67;8.60;;;;;;;15.26;100.00;102471.41;5584978;25;19997;-64
2024/04/13 06:17:10;;;;;;;16.90;8.48;;;;;;;15.21;100.00;102474.13;5497695;25;19996;-66
2024/04/13 06:19:58;;;;;;;15.15;8.20;;;;;;;15.20;100.00;102472.47;5561612;25;20010;-66
2024/04/13 06:22:47;;;;;;;14.85;8.07;;;;;;;15.18;100.00;102474.63;5550445;25;20001;-68
2024/04/13 06:25:35;;;;;;;17.23;8.48;;;;;;;15.19;100.00;102473.53;5521622;26;20033;-68
2024/04/13 06:28:23;;;;;;;16.90;8.18;;;;;;;15.19;100.00;102470.78;5522436;26;20049;-70
2024/04/13 06:31:12;;;;;;;18.42;8.60;;;;;;;15.20;100.00;102466.97;5551769;25;19997;-70
2024/04/13 06:34:00;;;;;;;15.10;8.05;;;;;;;15.22;100.00;102466.69;5558470;25;20036;-70
2024/04/13 06:36:49;;;;;;;18.95;8.82;;;;;;;15.24;100.00;102473.59;5507778;25;19997;-69
2024/04/13 06:39:37;;;;;;;16.75;8.35;;;;;;;15.26;100.00;102476.91;5558730;25;20070;-68
2024/04/13 06:42:25;;;;;;;13.90;8.68;;;;;;;15.29;100.00;102473.63;5528723;25;20425;-69
2024/04/13 06:45:14;;;;;;;20.00;8.55;;;;;;;15.30;100.00;102469.81;5532959;25;20005;-69
2024/04/13 06:48:02;;;;;;;14.48;8.70;;;;;;;15.31;100.00;102471.47;5529930;25;19992;-69
2024/04/13 06:50:50;;;;;;;15.65;8.77;;;;;;;15.32;100.00;102478.63;5557476;25;20012;-69
2024/04/13 06:53:39;;;;;;;15.07;8.27;;;;;;;15.33;100.00;102463.78;5530791;25;20000;-68
2024/04/13 06:56:27;;;;;;;15.43;8.55;;;;;;;15.34;100.00;102459.97;5495045;26;20074;-68
2024/04/13 06:59:15;;;;;;;18.08;9.48;;;;;;;15.36;100.00;102465.19;5472825;25;20015;-69
2024/04/13 07:02:04;;;;;;;15.25;8.60;;;;;;;15.38;100.00;102451.22;5529220;25;20302;-71
2024/04/13 07:04:54;;;;;;;18.05;8.75;;;;;;;15.45;100.00;102454.56;5542702;25;20011;-68
2024/04/13 07:07:42;;;;;;;15.13;8.13;;;;;;;15.51;100.00;102439.78;5530583;25;20008;-68
2024/04/13 07:10:30;;;;;;;18.05;8.70;;;;;;;15.54;100.00;102436.53;5531937;25;20388;-69
2024/04/13 07:13:19;;;;;;;16.80;9.38;;;;;;;15.55;100.00;102436.25;5561890;25;20029;-68
2024/04/13 07:16:07;;;;;;;17.75;9.30;;;;;;;15.57;100.00;102446.97;5556694;25;19997;-69
2024/04/13 07:18:56;;;;;;;17.17;9.30;;;;;;;15.60;100.00;102438.22;5557888;25;20072;-68
2024/04/13 07:21:44;;;;;;;17.48;9.73;;;;;;;15.60;100.00;102443.72;5531058;25;19996;-69
2024/04/13 07:24:32;;;;;;;17.20;9.82;;;;;;;15.65;100.00;102435.50;5536655;25;20388;-68
2024/04/13 07:27:21;;;;;;;17.85;8.98;;;;;;;15.68;100.00;102442.38;5570008;25;19997;-70
2024/04/13 07:30:09;;;;;;;16.48;8.57;;;;;;;15.70;100.00;102435.56;5594786;25;20022;-68
2024/04/13 07:32:57;;;;;;;16.85;8.45;;;;;;;15.74;100.00;102433.97;5592529;25;20007;-68
2024/04/13 07:35:48;;;;;;;20.05;9.07;;;;;;;15.76;100.00;102426.28;5496113;26;20009;-68
2024/04/13 07:38:37;;;;;;;15.20;8.73;;;;;;;15.80;100.00;102428.50;5496855;26;20030;-68
2024/04/13 07:41:25;;;;;;;14.73;8.70;;;;;;;15.81;100.00;102421.91;5524248;26;20012;-67
2024/04/13 07:44:13;;;;;;;17.20;8.95;;;;;;;15.84;100.00;102421.38;5569489;25;19993;-70
2024/04/13 07:47:01;;;;;;;19.30;10.55;;;;;;;15.84;100.00;102421.38;5508983;25;20001;-68
2024/04/13 07:49:51;;;;;;;21.05;10.70;;;;;;;15.84;100.00;102422.22;5561295;25;19993;-67
2024/04/13 07:52:39;;;;;;;15.98;9.82;;;;;;;15.87;100.00;102420.84;5561656;25;20000;-68
2024/04/13 07:55:28;;;;;;;20.10;10.70;;;;;;;15.89;100.00;102419.50;5560754;25;20362;-68
2024/04/13 07:58:16;;;;;;;19.10;10.88;;;;;;;15.93;100.00;102415.13;5559295;25;20001;-68
2024/04/13 08:01:04;;;;;;;16.98;10.73;;;;;;;15.96;100.00;102420.09;5543500;25;20007;-69
2024/04/13 08:03:53;;;;;;;18.98;10.57;;;;;;;16.01;100.00;102411.03;5534168;25;20012;-68
2024/04/13 08:06:41;;;;;;;21.67;11.15;;;;;;;16.03;100.00;102408.88;5556537;25;20001;-68
2024/04/13 08:09:29;;;;;;;18.98;10.70;;;;;;;16.06;100.00;102407.50;5472879;26;20002;-68
2024/04/13 08:12:18;;;;;;;19.65;10.63;;;;;;;16.11;100.00;102404.78;5522824;26;20408;-67
2024/04/13 08:15:08;;;;;;;18.35;9.73;;;;;;;16.12;100.00;102401.78;5539952;25;19997;-68
2024/04/13 08:17:57;;;;;;;18.15;10.30;;;;;;;16.15;100.00;102403.97;5510173;25;20032;-67
2024/04/13 08:20:46;;;;;;;18.42;9.98;;;;;;;16.19;100.00;102396.84;5507531;25;20020;-66
2024/04/13 08:23:34;;;;;;;22.23;9.55;;;;;;;16.23;100.00;102390.81;5561328;25;20020;-69
2024/04/13 08:26:22;;;;;;;16.58;9.02;;;;;;;16.27;100.00;102398.25;5507350;25;20072;-68
2024/04/13 08:29:11;;;;;;;17.63;9.18;;;;;;;16.33;100.00;102404.59;5519613;25;20116;-68
2024/04/13 08:31:59;;;;;;;20.90;9.32;;;;;;;16.38;100.00;102410.16;5554119;25;20008;-68
2024/04/13 08:34:47;;;;;;;14.73;8.70;;;;;;;16.43;100.00;102414.81;5507399;25;20007;-69
2024/04/13 08:37:35;;;;;;;14.35;8.48;;;;;;;16.47;100.00;102407.69;5557284;25;20416;-68
2024/04/13 08:40:26;;;;;;;18.10;8.25;;;;;;;16.50;100.00;102397.00;5555325;25;20007;-69
2024/04/13 08:43:14;;;;;;;15.80;8.45;;;;;;;16.54;100.00;102398.09;5532493;25;20332;-68
2024/04/13 08:46:07;;;;;;;19.00;9.00;;;;;;;16.58;100.00;102385.47;5531441;25;20001;-69
2024/04/13 08:48:56;;;;;;;14.63;7.55;;;;;;;16.61;100.00;102376.66;5521343;25;20045;-68
2024/04/13 08:51:47;;;;;;;16.98;8.40;;;;;;;16.67;100.00;102384.91;5506508;25;19997;-68
2024/04/13 08:54:36;;;;;;;13.50;8.27;;;;;;;16.71;100.00;102375.84;5510121;25;20005;-67
2024/04/13 08:57:25;;;;;;;13.77;7.70;;;;;;;16.75;100.00;102370.66;5553074;25;20000;-67
2024/04/13 09:00:16;;;;;;;15.65;8.05;;;;;;;16.80;100.00;102367.94;5507677;25;20196;-68
2024/04/13 09:03:04;;;;;;;15.25;7.82;;;;;;;16.83;100.00;102367.38;5553195;25;20084;-67
2024/04/13 09:05:52;;;;;;;14.20;7.28;;;;;;;16.86;100.00;102358.59;5525190;25;20001;-70
2024/04/13 09:08:41;;;;;;;14.90;7.63;;;;;;;16.90;100.00;102361.63;5505463;25;20452;-69
2024/04/13 09:11:29;;;;;;;12.48;6.82;;;;;;;16.94;100.00;102358.03;5507007;25;20012;-68
2024/04/13 09:14:17;;;;;;;13.88;7.22;;;;;;;16.97;100.00;102354.75;5533304;25;20009;-69
2024/04/13 09:17:05;;;;;;;16.30;7.35;;;;;;;17.00;100.00;102347.84;5559446;25;20131;-68
2024/04/13 09:19:56;;;;;;;14.25;6.38;;;;;;;17.03;100.00;102345.41;5498623;26;20012;-71
2024/04/13 09:22:44;;;;;;;18.08;6.65;;;;;;;17.08;100.00;102351.97;5499992;26;20041;-69
2024/04/13 09:25:33;;;;;;;12.13;5.65;;;;;;;17.12;100.00;102353.09;5508264;25;19997;-69
2024/04/13 09:28:21;;;;;;;11.73;5.63;;;;;;;17.19;100.00;102337.13;5539755;25;20007;-70
2024/04/13 09:31:11;;;;;;;12.30;5.90;;;;;;;17.27;100.00;102339.34;5598110;25;20451;-69
2024/04/13 09:33:59;;;;;;;9.80;5.53;;;;;;;17.27;100.00;102339.34;5539831;25;19997;-68
2024/04/13 09:36:48;;;;;;;11.95;5.07;;;;;;;17.32;100.00;102330.22;5535140;25;20008;-69
2024/04/13 09:39:36;;;;;;;12.75;5.78;;;;;;;17.38;100.00;102318.94;5523107;25;20010;-69
2024/04/13 09:42:27;;;;;;;12.05;6.13;;;;;;;17.41;100.00;102318.41;5519175;25;19997;-69
2024/04/13 09:45:15;;;;;;;15.30;5.65;;;;;;;17.45;100.00;102311.19;5536839;25;20004;-69
2024/04/13 09:48:03;;;;;;;13.90;6.35;;;;;;;17.51;100.00;102313.94;5507748;25;20000;-70
2024/04/13 09:50:52;;;;;;;16.35;6.85;;;;;;;17.54;100.00;102307.91;5496462;26;20398;-70
2024/04/13 09:53:43;;;;;;;14.73;5.95;;;;;;;17.63;100.00;102311.72;5498988;26;19998;-69
2024/04/13 09:56:31;;;;;;;14.15;5.57;;;;;;;17.69;100.00;102307.84;5546923;25;19998;-69
2024/04/13 09:59:23;;;;;;;13.10;4.90;;;;;;;17.73;100.00;102294.34;5496325;26;20008;-69
2024/04/13 10:02:11;;;;;;;13.40;5.15;;;;;;;17.78;100.00;102288.81;5494269;26;20333;-70
2024/04/13 10:05:01;;;;;;;12.27;4.60;;;;;;;17.81;100.00;102289.09;5495935;26;20012;-69
2024/04/13 10:07:50;;;;;;;10.73;4.30;;;;;;;17.91;100.00;102287.41;5506582;25;20346;-70
2024/04/13 10:10:46;;;;;;;12.98;5.57;;;;;;;17.98;100.00;102288.75;5509872;25;20016;-70
2024/04/13 10:13:46;;;;;;;12.30;4.88;;;;;;;18.01;100.00;102284.59;5475013;25;20328;-70
2024/04/13 10:16:34;;;;;;;11.02;4.93;;;;;;;18.03;100.00;102293.44;5533165;25;20344;-70
2024/04/13 10:19:23;;;;;;;9.90;4.70;;;;;;;18.07;100.00;102280.72;5502460;25;20008;-70
2024/04/13 10:22:12;;;;;;;9.68;4.38;;;;;;;18.12;100.00;102274.38;5541687;25;20132;-70
2024/04/13 10:25:15;;;;;;;11.73;4.45;;;;;;;18.16;100.00;102273.50;5505060;25;20000;-67
2024/04/13 10:28:11;;;;;;;6.55;3.67;;;;;;;18.20;100.00;102268.25;5542424;25;20011;-69
2024/04/13 10:30:59;;;;;;;;;;;;;;;18.25;100.00;102266.25;5524596;25;19997;-64
2024/04/13 10:33:54;;;;;;;9.95;4.10;;;;;;;18.35;100.00;102253.53;5548183;25;19934;-67
2024/04/13 10:36:43;;;;;;;11.82;4.68;;;;;;;18.36;100.00;102249.66;5548436;25;20477;-68
2024/04/13 10:39:32;;;;;;;8.32;3.22;;;;;;;18.42;100.00;102248.50;5534863;25;20011;-69
2024/04/13 10:42:42;;;;;;;8.43;3.80;;;;;;;18.48;100.00;102239.09;5558563;25;19997;-69
2024/04/13 10:45:31;;;;;;;7.28;3.17;;;;;;;18.52;100.00;102231.91;5425710;26;20001;-69
2024/04/13 10:48:19;;;;;;;7.32;3.72;;;;;;;18.53;100.00;102233.53;5477050;25;20027;-69
2024/04/13 10:51:10;;;;;;;11.27;4.47;;;;;;;18.65;100.00;102234.00;5559361;25;19997;-69
2024/04/13 10:53:59;;;;;;;7.72;3.80;;;;;;;18.69;100.00;102221.28;5560491;25;20053;-68
2024/04/13 10:56:47;;;;;;;11.95;4.38;;;;;;;18.68;100.00;102225.13;5509255;25;19996;-69
2024/04/13 10:59:39;;;;;;;8.48;3.42;;;;;;;18.67;100.00;102226.25;5535692;25;20008;-69
2024/04/13 11:02:27;;;;;;;6.53;3.28;;;;;;;18.70;100.00;102216.56;5545526;25;20046;-69
2024/04/13 11:05:19;;;;;;;9.73;3.90;;;;;;;18.81;100.00;102212.63;5477842;26;20493;-70
2024/04/13 11:08:08;;;;;;;7.30;3.05;;;;;;;18.85;100.00;102218.41;5496806;26;20033;-70
2024/04/13 11:10:58;;;;;;;8.98;3.40;;;;;;;18.84;100.00;102214.00;5524586;25;20041;-69
2024/04/13 11:13:47;;;;;;;8.27;3.92;;;;;;;18.86;100.00;102214.53;5534312;25;19993;-71
2024/04/13 11:16:35;;;;;;;8.15;3.40;;;;;;;18.90;100.00;102197.06;5484469;25;19992;-70
2024/04/13 11:19:23;;;;;;;9.13;3.33;;;;;;;18.99;100.00;102201.97;5535859;25;20022;-70
2024/04/13 11:22:11;;;;;;;10.45;3.50;;;;;;;19.05;100.00;102196.13;5448921;26;20005;-70
2024/04/13 11:25:02;;;;;;;6.90;3.40;;;;;;;19.07;100.00;102190.28;5473901;26;20006;-70
2024/04/13 11:27:50;;;;;;;7.07;2.80;;;;;;;19.07;100.00;102177.31;5525799;26;19998;-69
2024/04/13 11:30:41;;;;;;;10.20;3.38;;;;;;;19.16;100.00;102183.81;5484386;25;20037;-69
2024/04/13 11:33:31;;;;;;;6.05;2.83;;;;;;;19.19;100.00;102174.13;5561068;25;20000;-70
2024/04/13 11:36:20;;;;;;;8.48;3.05;;;;;;;19.23;100.00;102175.19;5485631;25;20011;-70
2024/04/13 11:39:10;;;;;;;6.05;2.60;;;;;;;19.32;100.00;102173.44;5505622;25;20007;-68
2024/04/13 11:42:04;;;;;;;14.20;4.15;;;;;;;19.39;100.00;102167.56;5516820;25;20032;-70
2024/04/13 11:44:53;;;;;;;10.63;3.10;;;;;;;19.46;94.22;102168.03;5507923;25;20023;-67
2024/04/13 11:47:41;;;;;;;7.60;2.92;;;;;;;19.53;92.86;102168.47;5509688;25;20459;-68
2024/04/13 11:50:29;;;;;;;5.93;2.58;;;;;;;19.55;93.94;102159.88;5531796;25;19993;-70
2024/04/13 11:53:18;;;;;;;8.15;3.45;;;;;;;19.63;91.23;102152.88;5560563;25;19992;-69
2024/04/13 11:56:10;;;;;;;6.97;2.58;;;;;;;19.63;94.92;102148.19;5507949;25;20008;-69
2024/04/13 11:58:59;;;;;;;8.40;3.25;;;;;;;19.63;93.93;102144.59;5486658;25;20000;-69
2024/04/13 12:01:47;;;;;;;9.15;3.35;;;;;;;19.57;95.15;102133.56;5518589;25;20045;-70
2024/04/13 12:04:35;;;;;;;9.70;3.50;;;;;;;19.61;93.94;102139.34;5514793;25;20101;-69
2024/04/13 12:07:24;;;;;;;9.35;3.30;;;;;;;19.72;93.70;102132.59;5536270;25;19996;-69
2024/04/13 12:10:12;;;;;;;6.50;3.10;;;;;;;19.72;94.84;102123.47;5554498;25;19996;-69
2024/04/13 12:13:00;;;;;;;6.70;3.40;;;;;;;19.79;92.39;102118.38;5533343;25;20011;-70
2024/04/13 12:15:48;;;;;;;14.23;3.65;;;;;;;19.85;91.80;102110.84;5534340;25;20007;-69
2024/04/13 12:18:36;;;;;;;6.93;3.05;;;;;;;19.87;92.39;102112.19;5509075;25;20001;-69
2024/04/13 12:21:24;;;;;;;8.20;3.05;;;;;;;19.86;94.14;102106.94;5483382;25;20068;-71
2024/04/13 12:24:13;;;;;;;7.78;3.10;;;;;;;19.78;94.75;102091.84;5557326;25;20336;-69
2024/04/13 12:27:03;;;;;;;10.32;3.70;;;;;;;19.82;92.45;102084.59;5473125;26;20010;-70
2024/04/13 12:29:52;;;;;;;7.22;2.85;;;;;;;19.89;91.76;102093.34;5559492;25;20406;-69
2024/04/13 12:32:40;;;;;;;10.30;3.55;;;;;;;19.94;92.97;102084.97;5571473;25;20000;-70
2024/04/13 12:35:28;;;;;;;7.15;2.75;;;;;;;19.92;93.13;102083.63;5570052;25;20020;-69
2024/04/13 12:38:16;;;;;;;10.05;3.25;;;;;;;19.96;94.15;102079.13;5595203;25;20044;-72
2024/04/13 12:41:04;;;;;;;7.15;2.90;;;;;;;20.00;93.49;102072.69;5509886;25;20008;-70
2024/04/13 12:43:52;;;;;;;10.55;3.42;;;;;;;20.13;89.66;102075.78;5535661;25;20496;-70
2024/04/13 12:46:41;;;;;;;7.65;3.28;;;;;;;20.20;88.00;102076.22;5534471;25;20080;-70
2024/04/13 12:49:29;;;;;;;7.20;3.38;;;;;;;20.22;89.20;102065.69;5436920;25;20141;-70